Roseburg Regional Airport

About
Name: Roseburg Regional Airport
Identifier:  RBG/KRBG
Serves:  Roseburg, Oregon
Owner:  City of Roseburg
Public/Private:  Public
Local Time:  21. Sep 00:25 PDT
Description: Roseburg Regional Airport is in Douglas County, Oregon, a mile northwest of Roseburg, which owns it. It is also known as Major General Marion E. Carl Memorial Field, named after Marion Eugene Carl.
Source: Wikipedia
Location
Runways
Identifier Length (m/ft) Surface
16/34 4,602/4,602 Asphalt
Statistics
Flights per Day:
0 flights
Distance: 99km (61mi)
Flights delayed:
0% (0 flights per day delayed)
Delay Average: 4 minutes
Current Weather
 14 C (Humidity: 87%)
  0kt (0km/h / 0mph) from 0°
  16km (10 mi.)
 
 METAR KRBG 210653Z AUTO 00000KT 10SM CLR 14/12 A3014 RMK AO2 SLP206 T01390122

Current Delays

Departures
N/A
Arrivals
N/A

Destinations

Top Destinations
Airport Flights
per week
Seats
per week
  Eugene (EUG) 2 - 0 0
  Medford (MFR) 0 - 0 0

Airlines & Planes

Top Airlines
Airline Flights
per Day
Seats
per Day
  Empire Airlines 0 -
  Federal Express (FedEx) 0 0
Top Plane Types
Model Flights Seats
Cessna C208 0.5/day - -0.06666666666666667